sensor_id;sensor_type;location;lat;lon;timestamp;temperature;humidity
27413;DHT22;14871;52.702;5.230;2023-07-13T00:01:47;19.80;99.90
27413;DHT22;14871;52.702;5.230;2023-07-13T00:04:18;19.90;99.90
27413;DHT22;14871;52.702;5.230;2023-07-13T00:06:45;19.90;99.90
27413;DHT22;14871;52.702;5.230;2023-07-13T00:09:14;19.70;99.90
27413;DHT22;14871;52.702;5.230;2023-07-13T00:11:42;19.80;99.90
27413;DHT22;14871;52.702;5.230;2023-07-13T00:14:09;19.70;99.90
27413;DHT22;14871;52.702;5.230;2023-07-13T00:16:36;19.80;99.90
27413;DHT22;14871;52.702;5.230;2023-07-13T00:19:03;19.70;99.90
27413;DHT22;14871;52.702;5.230;2023-07-13T00:21:29;19.80;99.90
27413;DHT22;14871;52.702;5.230;2023-07-13T00:23:54;19.80;99.90
27413;DHT22;14871;52.702;5.230;2023-07-13T00:26:20;19.80;99.90
27413;DHT22;14871;52.702;5.230;2023-07-13T00:28:46;19.70;99.90
27413;DHT22;14871;52.702;5.230;2023-07-13T00:31:12;19.60;99.90
27413;DHT22;14871;52.702;5.230;2023-07-13T00:33:40;19.70;99.90
27413;DHT22;14871;52.702;5.230;2023-07-13T00:36:05;19.70;99.90
27413;DHT22;14871;52.702;5.230;2023-07-13T00:38:31;19.60;99.90
27413;DHT22;14871;52.702;5.230;2023-07-13T00:40:57;19.50;99.90
27413;DHT22;14871;52.702;5.230;2023-07-13T00:43:25;19.70;99.90
27413;DHT22;14871;52.702;5.230;2023-07-13T00:48:21;19.50;99.90
27413;DHT22;14871;52.702;5.230;2023-07-13T00:50:51;19.60;99.90
27413;DHT22;14871;52.702;5.230;2023-07-13T00:53:19;19.60;99.90
27413;DHT22;14871;52.702;5.230;2023-07-13T00:55:46;19.50;99.90
27413;DHT22;14871;52.702;5.230;2023-07-13T00:58:12;19.50;99.90
27413;DHT22;14871;52.702;5.230;2023-07-13T01:00:39;19.60;99.90
27413;DHT22;14871;52.702;5.230;2023-07-13T01:03:05;19.50;99.90
27413;DHT22;14871;52.702;5.230;2023-07-13T01:05:33;19.60;99.90
27413;DHT22;14871;52.702;5.230;2023-07-13T01:07:59;19.40;99.90
27413;DHT22;14871;52.702;5.230;2023-07-13T01:10:26;19.40;99.90
27413;DHT22;14871;52.702;5.230;2023-07-13T01:12:53;19.40;99.90
27413;DHT22;14871;52.702;5.230;2023-07-13T01:15:43;19.50;99.90
27413;DHT22;14871;52.702;5.230;2023-07-13T01:18:26;19.40;99.90
27413;DHT22;14871;52.702;5.230;2023-07-13T01:20:58;19.50;99.90
27413;DHT22;14871;52.702;5.230;2023-07-13T01:23:25;19.40;99.90
27413;DHT22;14871;52.702;5.230;2023-07-13T01:25:52;19.50;99.90
27413;DHT22;14871;52.702;5.230;2023-07-13T01:28:19;19.40;99.90
27413;DHT22;14871;52.702;5.230;2023-07-13T01:30:45;19.40;99.90
27413;DHT22;14871;52.702;5.230;2023-07-13T01:33:17;19.40;99.90
27413;DHT22;14871;52.702;5.230;2023-07-13T01:35:44;19.40;99.90
27413;DHT22;14871;52.702;5.230;2023-07-13T01:38:10;19.40;99.90
27413;DHT22;14871;52.702;5.230;2023-07-13T01:40:37;19.40;99.90
27413;DHT22;14871;52.702;5.230;2023-07-13T01:43:04;19.30;99.90
27413;DHT22;14871;52.702;5.230;2023-07-13T01:45:29;19.30;99.90
27413;DHT22;14871;52.702;5.230;2023-07-13T01:47:55;19.40;99.90
27413;DHT22;14871;52.702;5.230;2023-07-13T01:50:21;19.30;99.90
27413;DHT22;14871;52.702;5.230;2023-07-13T01:52:47;19.30;99.90
27413;DHT22;14871;52.702;5.230;2023-07-13T01:55:12;19.60;99.90
27413;DHT22;14871;52.702;5.230;2023-07-13T01:57:39;19.40;99.90
27413;DHT22;14871;52.702;5.230;2023-07-13T02:00:06;19.40;99.90
27413;DHT22;14871;52.702;5.230;2023-07-13T02:02:32;19.30;99.90
27413;DHT22;14871;52.702;5.230;2023-07-13T02:04:58;19.40;99.90
27413;DHT22;14871;52.702;5.230;2023-07-13T02:07:24;19.30;99.90
27413;DHT22;14871;52.702;5.230;2023-07-13T02:09:49;19.20;99.90
27413;DHT22;14871;52.702;5.230;2023-07-13T02:12:15;19.20;99.90
27413;DHT22;14871;52.702;5.230;2023-07-13T02:14:41;19.30;99.90
27413;DHT22;14871;52.702;5.230;2023-07-13T02:17:06;19.10;99.90
27413;DHT22;14871;52.702;5.230;2023-07-13T02:19:32;19.20;99.90
27413;DHT22;14871;52.702;5.230;2023-07-13T02:21:58;19.10;99.90
27413;DHT22;14871;52.702;5.230;2023-07-13T02:24:23;19.10;99.90
27413;DHT22;14871;52.702;5.230;2023-07-13T02:26:49;19.00;99.90
27413;DHT22;14871;52.702;5.230;2023-07-13T02:29:15;19.00;99.90
27413;DHT22;14871;52.702;5.230;2023-07-13T02:31:40;19.00;99.90
27413;DHT22;14871;52.702;5.230;2023-07-13T02:34:06;19.10;99.90
27413;DHT22;14871;52.702;5.230;2023-07-13T02:36:32;19.00;99.90
27413;DHT22;14871;52.702;5.230;2023-07-13T02:39:01;18.90;99.90
27413;DHT22;14871;52.702;5.230;2023-07-13T02:41:27;19.00;99.90
27413;DHT22;14871;52.702;5.230;2023-07-13T02:43:52;19.00;99.90
27413;DHT22;14871;52.702;5.230;2023-07-13T02:46:18;19.00;99.90
27413;DHT22;14871;52.702;5.230;2023-07-13T02:48:45;19.10;99.90
27413;DHT22;14871;52.702;5.230;2023-07-13T02:51:11;19.00;99.90
27413;DHT22;14871;52.702;5.230;2023-07-13T02:53:37;19.00;99.90
27413;DHT22;14871;52.702;5.230;2023-07-13T02:56:03;19.00;99.90
27413;DHT22;14871;52.702;5.230;2023-07-13T02:58:29;19.10;99.90
27413;DHT22;14871;52.702;5.230;2023-07-13T03:00:55;19.00;99.90
27413;DHT22;14871;52.702;5.230;2023-07-13T03:03:21;19.00;99.90
27413;DHT22;14871;52.702;5.230;2023-07-13T03:05:47;19.00;99.90
27413;DHT22;14871;52.702;5.230;2023-07-13T03:08:16;19.10;99.90
27413;DHT22;14871;52.702;5.230;2023-07-13T03:10:41;18.90;99.90
27413;DHT22;14871;52.702;5.230;2023-07-13T03:13:07;19.00;99.90
27413;DHT22;14871;52.702;5.230;2023-07-13T03:15:33;19.10;99.90
27413;DHT22;14871;52.702;5.230;2023-07-13T03:17:59;19.00;99.90
27413;DHT22;14871;52.702;5.230;2023-07-13T03:20:24;19.00;99.90
27413;DHT22;14871;52.702;5.230;2023-07-13T03:22:50;19.10;99.90
27413;DHT22;14871;52.702;5.230;2023-07-13T03:25:16;19.00;99.90
27413;DHT22;14871;52.702;5.230;2023-07-13T03:27:41;18.90;99.90
27413;DHT22;14871;52.702;5.230;2023-07-13T03:30:07;18.90;99.90
27413;DHT22;14871;52.702;5.230;2023-07-13T03:32:33;18.90;99.90
27413;DHT22;14871;52.702;5.230;2023-07-13T03:34:59;18.90;99.90
27413;DHT22;14871;52.702;5.230;2023-07-13T03:37:24;18.80;99.90
27413;DHT22;14871;52.702;5.230;2023-07-13T03:39:50;18.90;99.90
27413;DHT22;14871;52.702;5.230;2023-07-13T03:42:16;18.80;99.90
27413;DHT22;14871;52.702;5.230;2023-07-13T03:44:42;19.00;99.90
27413;DHT22;14871;52.702;5.230;2023-07-13T03:47:11;18.90;99.90
27413;DHT22;14871;52.702;5.230;2023-07-13T03:49:37;18.90;99.90
27413;DHT22;14871;52.702;5.230;2023-07-13T03:52:03;18.80;99.90
27413;DHT22;14871;52.702;5.230;2023-07-13T03:54:29;18.90;99.90
27413;DHT22;14871;52.702;5.230;2023-07-13T03:56:54;18.80;99.90
27413;DHT22;14871;52.702;5.230;2023-07-13T03:59:20;18.90;99.90
27413;DHT22;14871;52.702;5.230;2023-07-13T04:01:46;18.70;99.90
27413;DHT22;14871;52.702;5.230;2023-07-13T04:04:11;18.70;99.90
27413;DHT22;14871;52.702;5.230;2023-07-13T04:06:37;18.80;99.90
27413;DHT22;14871;52.702;5.230;2023-07-13T04:09:03;18.90;99.90
27413;DHT22;14871;52.702;5.230;2023-07-13T04:11:32;18.80;99.90
27413;DHT22;14871;52.702;5.230;2023-07-13T04:13:58;18.80;99.90
27413;DHT22;14871;52.702;5.230;2023-07-13T04:16:25;18.90;99.90
27413;DHT22;14871;52.702;5.230;2023-07-13T04:18:50;19.00;99.90
27413;DHT22;14871;52.702;5.230;2023-07-13T04:21:20;19.00;99.90
27413;DHT22;14871;52.702;5.230;2023-07-13T04:23:46;19.00;99.90
27413;DHT22;14871;52.702;5.230;2023-07-13T04:26:11;19.00;99.90
27413;DHT22;14871;52.702;5.230;2023-07-13T04:28:37;19.00;99.90
27413;DHT22;14871;52.702;5.230;2023-07-13T04:31:03;19.00;99.90
27413;DHT22;14871;52.702;5.230;2023-07-13T04:33:29;19.10;99.90
27413;DHT22;14871;52.702;5.230;2023-07-13T04:35:55;18.90;99.90
27413;DHT22;14871;52.702;5.230;2023-07-13T04:38:27;19.00;99.90
27413;DHT22;14871;52.702;5.230;2023-07-13T04:40:55;19.00;99.90
27413;DHT22;14871;52.702;5.230;2023-07-13T04:43:21;19.00;99.90
27413;DHT22;14871;52.702;5.230;2023-07-13T04:45:47;19.00;99.90
27413;DHT22;14871;52.702;5.230;2023-07-13T04:48:12;19.00;99.90
27413;DHT22;14871;52.702;5.230;2023-07-13T04:50:38;19.10;99.90
27413;DHT22;14871;52.702;5.230;2023-07-13T04:53:04;19.10;99.90
27413;DHT22;14871;52.702;5.230;2023-07-13T04:55:31;19.10;99.90
27413;DHT22;14871;52.702;5.230;2023-07-13T04:57:57;19.20;99.90
27413;DHT22;14871;52.702;5.230;2023-07-13T05:00:28;19.20;99.90
27413;DHT22;14871;52.702;5.230;2023-07-13T05:02:55;19.20;99.90
27413;DHT22;14871;52.702;5.230;2023-07-13T05:05:21;19.20;99.90
27413;DHT22;14871;52.702;5.230;2023-07-13T05:07:47;19.30;99.90
27413;DHT22;14871;52.702;5.230;2023-07-13T05:10:13;19.30;99.90
27413;DHT22;14871;52.702;5.230;2023-07-13T05:12:38;19.40;99.90
27413;DHT22;14871;52.702;5.230;2023-07-13T05:15:04;19.40;99.90
27413;DHT22;14871;52.702;5.230;2023-07-13T05:17:30;19.50;99.90
27413;DHT22;14871;52.702;5.230;2023-07-13T05:19:55;19.40;99.90
27413;DHT22;14871;52.702;5.230;2023-07-13T05:22:21;19.60;99.90
27413;DHT22;14871;52.702;5.230;2023-07-13T05:24:47;19.80;99.90
27413;DHT22;14871;52.702;5.230;2023-07-13T05:27:12;19.80;99.90
27413;DHT22;14871;52.702;5.230;2023-07-13T05:29:38;19.80;99.90
27413;DHT22;14871;52.702;5.230;2023-07-13T05:32:04;19.90;99.90
27413;DHT22;14871;52.702;5.230;2023-07-13T05:34:30;20.00;99.90
27413;DHT22;14871;52.702;5.230;2023-07-13T05:36:55;19.90;99.90
27413;DHT22;14871;52.702;5.230;2023-07-13T05:39:21;20.10;99.90
27413;DHT22;14871;52.702;5.230;2023-07-13T05:41:46;20.10;99.90
27413;DHT22;14871;52.702;5.230;2023-07-13T05:44:12;20.10;99.90
27413;DHT22;14871;52.702;5.230;2023-07-13T05:46:38;20.20;99.90
27413;DHT22;14871;52.702;5.230;2023-07-13T05:49:03;20.20;99.90
27413;DHT22;14871;52.702;5.230;2023-07-13T05:51:29;20.30;99.90
27413;DHT22;14871;52.702;5.230;2023-07-13T05:53:55;20.30;99.90
27413;DHT22;14871;52.702;5.230;2023-07-13T05:56:20;20.30;99.90
27413;DHT22;14871;52.702;5.230;2023-07-13T05:58:48;20.30;99.90
27413;DHT22;14871;52.702;5.230;2023-07-13T06:01:14;20.30;99.90
27413;DHT22;14871;52.702;5.230;2023-07-13T06:03:40;20.20;99.90
27413;DHT22;14871;52.702;5.230;2023-07-13T06:06:07;20.20;99.90
27413;DHT22;14871;52.702;5.230;2023-07-13T06:08:34;20.30;99.90
27413;DHT22;14871;52.702;5.230;2023-07-13T06:11:09;20.10;99.90
27413;DHT22;14871;52.702;5.230;2023-07-13T06:13:37;20.30;99.90
27413;DHT22;14871;52.702;5.230;2023-07-13T06:16:03;20.30;99.90
27413;DHT22;14871;52.702;5.230;2023-07-13T06:18:30;20.40;99.90
27413;DHT22;14871;52.702;5.230;2023-07-13T06:20:56;20.40;99.90
27413;DHT22;14871;52.702;5.230;2023-07-13T06:23:23;20.30;99.90
27413;DHT22;14871;52.702;5.230;2023-07-13T06:25:48;20.30;99.90
27413;DHT22;14871;52.702;5.230;2023-07-13T06:28:14;20.40;99.90
27413;DHT22;14871;52.702;5.230;2023-07-13T06:30:40;20.30;99.90
27413;DHT22;14871;52.702;5.230;2023-07-13T06:33:05;20.40;99.90
27413;DHT22;14871;52.702;5.230;2023-07-13T06:35:31;20.40;99.90
27413;DHT22;14871;52.702;5.230;2023-07-13T06:37:57;20.50;99.90
27413;DHT22;14871;52.702;5.230;2023-07-13T06:40:23;20.60;99.90
27413;DHT22;14871;52.702;5.230;2023-07-13T06:42:48;20.60;99.90
27413;DHT22;14871;52.702;5.230;2023-07-13T06:45:14;20.60;99.90
27413;DHT22;14871;52.702;5.230;2023-07-13T06:47:39;20.60;99.90
27413;DHT22;14871;52.702;5.230;2023-07-13T06:50:05;20.70;99.90
27413;DHT22;14871;52.702;5.230;2023-07-13T06:52:31;20.60;99.90
27413;DHT22;14871;52.702;5.230;2023-07-13T06:54:57;20.60;99.90
27413;DHT22;14871;52.702;5.230;2023-07-13T06:57:22;20.70;99.90
27413;DHT22;14871;52.702;5.230;2023-07-13T06:59:48;20.80;99.90
27413;DHT22;14871;52.702;5.230;2023-07-13T07:02:14;20.80;99.90
27413;DHT22;14871;52.702;5.230;2023-07-13T07:04:39;20.90;99.90
27413;DHT22;14871;52.702;5.230;2023-07-13T07:07:05;20.60;99.90
27413;DHT22;14871;52.702;5.230;2023-07-13T07:09:30;20.60;99.90
27413;DHT22;14871;52.702;5.230;2023-07-13T07:11:57;20.60;99.90
27413;DHT22;14871;52.702;5.230;2023-07-13T07:14:23;20.60;99.90
27413;DHT22;14871;52.702;5.230;2023-07-13T07:16:49;20.40;99.90
27413;DHT22;14871;52.702;5.230;2023-07-13T07:19:16;20.50;99.90
27413;DHT22;14871;52.702;5.230;2023-07-13T07:21:41;20.50;99.90
27413;DHT22;14871;52.702;5.230;2023-07-13T07:24:07;20.60;99.90
27413;DHT22;14871;52.702;5.230;2023-07-13T07:26:33;20.60;99.90
27413;DHT22;14871;52.702;5.230;2023-07-13T07:28:59;20.40;99.90
27413;DHT22;14871;52.702;5.230;2023-07-13T07:31:24;20.30;99.90
27413;DHT22;14871;52.702;5.230;2023-07-13T07:33:50;20.30;99.90
27413;DHT22;14871;52.702;5.230;2023-07-13T07:36:16;20.20;99.90
27413;DHT22;14871;52.702;5.230;2023-07-13T07:38:42;20.20;99.90
27413;DHT22;14871;52.702;5.230;2023-07-13T07:41:08;20.00;99.90
27413;DHT22;14871;52.702;5.230;2023-07-13T07:43:34;19.80;99.90
27413;DHT22;14871;52.702;5.230;2023-07-13T07:46:00;20.10;99.90
27413;DHT22;14871;52.702;5.230;2023-07-13T07:48:25;20.10;99.90
27413;DHT22;14871;52.702;5.230;2023-07-13T07:50:51;20.20;99.90
27413;DHT22;14871;52.702;5.230;2023-07-13T07:53:17;20.30;99.90
27413;DHT22;14871;52.702;5.230;2023-07-13T07:55:42;20.40;99.90
27413;DHT22;14871;52.702;5.230;2023-07-13T07:58:08;20.70;99.90
27413;DHT22;14871;52.702;5.230;2023-07-13T08:00:34;20.80;99.90
27413;DHT22;14871;52.702;5.230;2023-07-13T08:03:01;21.20;99.90
27413;DHT22;14871;52.702;5.230;2023-07-13T08:05:27;21.30;99.90
27413;DHT22;14871;52.702;5.230;2023-07-13T08:07:52;21.30;99.90
27413;DHT22;14871;52.702;5.230;2023-07-13T08:10:18;21.30;99.90
27413;DHT22;14871;52.702;5.230;2023-07-13T08:12:44;21.60;99.90
27413;DHT22;14871;52.702;5.230;2023-07-13T08:15:12;21.90;99.90
27413;DHT22;14871;52.702;5.230;2023-07-13T08:17:38;21.80;99.90
27413;DHT22;14871;52.702;5.230;2023-07-13T08:20:04;21.80;99.90
27413;DHT22;14871;52.702;5.230;2023-07-13T08:22:30;21.90;99.90
27413;DHT22;14871;52.702;5.230;2023-07-13T08:24:55;22.20;99.90
27413;DHT22;14871;52.702;5.230;2023-07-13T08:27:25;22.20;99.90
27413;DHT22;14871;52.702;5.230;2023-07-13T08:29:52;22.30;99.90
27413;DHT22;14871;52.702;5.230;2023-07-13T08:32:19;22.40;99.90
27413;DHT22;14871;52.702;5.230;2023-07-13T08:34:45;22.80;99.90
27413;DHT22;14871;52.702;5.230;2023-07-13T08:37:11;22.80;99.90
27413;DHT22;14871;52.702;5.230;2023-07-13T08:39:37;22.90;99.90
27413;DHT22;14871;52.702;5.230;2023-07-13T08:45:19;23.00;99.90
27413;DHT22;14871;52.702;5.230;2023-07-13T08:47:51;23.20;99.90
27413;DHT22;14871;52.702;5.230;2023-07-13T08:50:21;23.00;99.90
27413;DHT22;14871;52.702;5.230;2023-07-13T08:52:49;23.20;99.90
27413;DHT22;14871;52.702;5.230;2023-07-13T08:57:46;23.60;99.90
27413;DHT22;14871;52.702;5.230;2023-07-13T09:00:13;23.80;99.90
27413;DHT22;14871;52.702;5.230;2023-07-13T09:03:00;23.70;99.90
27413;DHT22;14871;52.702;5.230;2023-07-13T09:05:33;23.70;99.50
27413;DHT22;14871;52.702;5.230;2023-07-13T09:08:08;23.80;99.90
27413;DHT22;14871;52.702;5.230;2023-07-13T09:10:52;23.90;99.90
27413;DHT22;14871;52.702;5.230;2023-07-13T09:15:55;23.90;99.70
27413;DHT22;14871;52.702;5.230;2023-07-13T09:18:44;23.90;99.90
27413;DHT22;14871;52.702;5.230;2023-07-13T09:21:17;23.80;99.20
27413;DHT22;14871;52.702;5.230;2023-07-13T09:23:44;24.00;97.70
27413;DHT22;14871;52.702;5.230;2023-07-13T09:26:17;23.90;98.10
27413;DHT22;14871;52.702;5.230;2023-07-13T09:28:48;24.20;96.80
27413;DHT22;14871;52.702;5.230;2023-07-13T09:31:16;24.20;96.10
27413;DHT22;14871;52.702;5.230;2023-07-13T09:33:43;24.10;96.10
27413;DHT22;14871;52.702;5.230;2023-07-13T09:36:22;24.30;96.00
27413;DHT22;14871;52.702;5.230;2023-07-13T09:41:47;24.20;94.90
27413;DHT22;14871;52.702;5.230;2023-07-13T09:44:18;24.60;93.70
27413;DHT22;14871;52.702;5.230;2023-07-13T09:46:54;24.40;94.70
27413;DHT22;14871;52.702;5.230;2023-07-13T09:49:36;24.60;94.40
27413;DHT22;14871;52.702;5.230;2023-07-13T09:52:05;24.50;94.50
27413;DHT22;14871;52.702;5.230;2023-07-13T09:54:34;24.50;94.00
27413;DHT22;14871;52.702;5.230;2023-07-13T09:57:01;24.60;94.10
27413;DHT22;14871;52.702;5.230;2023-07-13T09:59:30;24.60;93.40
27413;DHT22;14871;52.702;5.230;2023-07-13T10:01:56;24.70;93.30
27413;DHT22;14871;52.702;5.230;2023-07-13T10:04:29;24.70;93.20
27413;DHT22;14871;52.702;5.230;2023-07-13T10:07:12;24.90;91.70
27413;DHT22;14871;52.702;5.230;2023-07-13T10:09:41;25.10;92.30
27413;DHT22;14871;52.702;5.230;2023-07-13T10:12:15;25.20;91.90
27413;DHT22;14871;52.702;5.230;2023-07-13T10:14:42;25.30;91.90
27413;DHT22;14871;52.702;5.230;2023-07-13T10:17:12;25.30;92.80
27413;DHT22;14871;52.702;5.230;2023-07-13T10:19:41;25.20;91.50
27413;DHT22;14871;52.702;5.230;2023-07-13T10:22:36;25.20;92.40
27413;DHT22;14871;52.702;5.230;2023-07-13T10:25:15;25.60;91.30
27413;DHT22;14871;52.702;5.230;2023-07-13T10:27:42;25.50;90.50
27413;DHT22;14871;52.702;5.230;2023-07-13T10:30:24;25.60;90.90
27413;DHT22;14871;52.702;5.230;2023-07-13T10:32:58;25.50;90.90
27413;DHT22;14871;52.702;5.230;2023-07-13T10:35:26;25.30;91.50
27413;DHT22;14871;52.702;5.230;2023-07-13T10:40:30;25.50;90.50
27413;DHT22;14871;52.702;5.230;2023-07-13T10:43:01;25.80;88.90
27413;DHT22;14871;52.702;5.230;2023-07-13T10:45:33;25.80;89.00
27413;DHT22;14871;52.702;5.230;2023-07-13T10:48:00;25.90;87.90
27413;DHT22;14871;52.702;5.230;2023-07-13T10:50:28;25.90;87.80
27413;DHT22;14871;52.702;5.230;2023-07-13T10:53:02;26.20;86.60
27413;DHT22;14871;52.702;5.230;2023-07-13T10:55:41;26.30;84.50
27413;DHT22;14871;52.702;5.230;2023-07-13T10:58:36;26.10;84.30
27413;DHT22;14871;52.702;5.230;2023-07-13T11:03:35;26.20;84.70
27413;DHT22;14871;52.702;5.230;2023-07-13T11:11:58;26.30;83.00
27413;DHT22;14871;52.702;5.230;2023-07-13T11:15:00;26.30;82.10
27413;DHT22;14871;52.702;5.230;2023-07-13T11:17:50;26.30;81.40
27413;DHT22;14871;52.702;5.230;2023-07-13T11:23:08;26.20;81.60
27413;DHT22;14871;52.702;5.230;2023-07-13T11:25:36;26.00;81.20
27413;DHT22;14871;52.702;5.230;2023-07-13T11:30:40;26.30;81.00
27413;DHT22;14871;52.702;5.230;2023-07-13T11:35:59;26.20;79.90
27413;DHT22;14871;52.702;5.230;2023-07-13T11:41:15;26.40;77.30
27413;DHT22;14871;52.702;5.230;2023-07-13T11:43:41;26.40;77.50
27413;DHT22;14871;52.702;5.230;2023-07-13T11:46:22;26.20;77.40
27413;DHT22;14871;52.702;5.230;2023-07-13T11:48:48;26.20;78.90
27413;DHT22;14871;52.702;5.230;2023-07-13T11:51:22;26.20;79.30
27413;DHT22;14871;52.702;5.230;2023-07-13T11:53:50;26.30;78.70
27413;DHT22;14871;52.702;5.230;2023-07-13T11:56:17;26.10;78.80
27413;DHT22;14871;52.702;5.230;2023-07-13T11:58:43;26.10;79.40
27413;DHT22;14871;52.702;5.230;2023-07-13T12:01:26;26.10;81.00
27413;DHT22;14871;52.702;5.230;2023-07-13T12:03:57;26.10;81.60
27413;DHT22;14871;52.702;5.230;2023-07-13T12:06:27;26.30;81.10
27413;DHT22;14871;52.702;5.230;2023-07-13T12:08:56;26.60;78.90
27413;DHT22;14871;52.702;5.230;2023-07-13T12:11:22;26.60;79.50
27413;DHT22;14871;52.702;5.230;2023-07-13T12:13:48;26.50;79.60
27413;DHT22;14871;52.702;5.230;2023-07-13T12:16:31;26.60;80.00
27413;DHT22;14871;52.702;5.230;2023-07-13T12:19:01;26.50;79.30
27413;DHT22;14871;52.702;5.230;2023-07-13T12:21:32;26.50;78.40
27413;DHT22;14871;52.702;5.230;2023-07-13T12:23:59;26.50;78.90
27413;DHT22;14871;52.702;5.230;2023-07-13T12:26:28;26.60;80.20
27413;DHT22;14871;52.702;5.230;2023-07-13T12:28:55;26.60;79.90
27413;DHT22;14871;52.702;5.230;2023-07-13T12:31:35;26.50;79.50
27413;DHT22;14871;52.702;5.230;2023-07-13T12:34:06;26.60;77.70
27413;DHT22;14871;52.702;5.230;2023-07-13T12:36:35;26.60;78.70
27413;DHT22;14871;52.702;5.230;2023-07-13T12:39:24;26.50;79.90
27413;DHT22;14871;52.702;5.230;2023-07-13T12:41:52;26.50;80.90
27413;DHT22;14871;52.702;5.230;2023-07-13T12:44:25;26.30;80.90
27413;DHT22;14871;52.702;5.230;2023-07-13T12:47:13;26.40;80.60
27413;DHT22;14871;52.702;5.230;2023-07-13T12:49:48;26.50;82.60
27413;DHT22;14871;52.702;5.230;2023-07-13T12:52:17;26.70;80.00
27413;DHT22;14871;52.702;5.230;2023-07-13T12:54:53;26.60;78.90
27413;DHT22;14871;52.702;5.230;2023-07-13T12:57:22;26.50;80.40
27413;DHT22;14871;52.702;5.230;2023-07-13T12:59:55;26.50;80.40
27413;DHT22;14871;52.702;5.230;2023-07-13T13:04:48;26.40;81.30
27413;DHT22;14871;52.702;5.230;2023-07-13T13:07:14;26.50;81.90
27413;DHT22;14871;52.702;5.230;2023-07-13T13:09:40;26.40;82.00
27413;DHT22;14871;52.702;5.230;2023-07-13T13:12:06;26.50;82.00
27413;DHT22;14871;52.702;5.230;2023-07-13T13:14:32;26.50;81.10
27413;DHT22;14871;52.702;5.230;2023-07-13T13:16:57;26.60;80.40
27413;DHT22;14871;52.702;5.230;2023-07-13T13:19:26;26.90;79.90
27413;DHT22;14871;52.702;5.230;2023-07-13T13:21:55;27.00;78.20
27413;DHT22;14871;52.702;5.230;2023-07-13T13:24:24;26.80;78.80
27413;DHT22;14871;52.702;5.230;2023-07-13T13:26:52;26.80;79.60
27413;DHT22;14871;52.702;5.230;2023-07-13T13:29:21;26.90;79.70
27413;DHT22;14871;52.702;5.230;2023-07-13T13:31:49;26.90;80.40
27413;DHT22;14871;52.702;5.230;2023-07-13T13:34:16;27.00;80.10
27413;DHT22;14871;52.702;5.230;2023-07-13T13:36:43;26.80;80.30
27413;DHT22;14871;52.702;5.230;2023-07-13T13:39:24;26.90;78.70
27413;DHT22;14871;52.702;5.230;2023-07-13T13:41:52;27.00;77.60
27413;DHT22;14871;52.702;5.230;2023-07-13T13:44:19;26.90;78.60
27413;DHT22;14871;52.702;5.230;2023-07-13T13:46:53;26.80;78.60
27413;DHT22;14871;52.702;5.230;2023-07-13T13:49:23;26.60;78.60
27413;DHT22;14871;52.702;5.230;2023-07-13T13:51:50;26.60;78.40
27413;DHT22;14871;52.702;5.230;2023-07-13T13:54:17;26.80;78.30
27413;DHT22;14871;52.702;5.230;2023-07-13T13:56:44;26.80;80.80
27413;DHT22;14871;52.702;5.230;2023-07-13T13:59:11;26.90;82.30
27413;DHT22;14871;52.702;5.230;2023-07-13T14:01:37;27.00;79.70
27413;DHT22;14871;52.702;5.230;2023-07-13T14:04:04;27.00;79.70
27413;DHT22;14871;52.702;5.230;2023-07-13T14:06:31;27.20;80.80
27413;DHT22;14871;52.702;5.230;2023-07-13T14:08:57;27.30;78.80
27413;DHT22;14871;52.702;5.230;2023-07-13T14:11:23;27.30;78.00
27413;DHT22;14871;52.702;5.230;2023-07-13T14:13:52;27.50;79.30
27413;DHT22;14871;52.702;5.230;2023-07-13T14:16:19;27.50;80.00
27413;DHT22;14871;52.702;5.230;2023-07-13T14:18:47;27.50;80.10
27413;DHT22;14871;52.702;5.230;2023-07-13T14:21:18;27.50;79.50
27413;DHT22;14871;52.702;5.230;2023-07-13T14:23:45;27.50;79.30
27413;DHT22;14871;52.702;5.230;2023-07-13T14:26:23;27.30;78.70
27413;DHT22;14871;52.702;5.230;2023-07-13T14:28:54;27.10;79.30
27413;DHT22;14871;52.702;5.230;2023-07-13T14:31:22;27.20;79.80
27413;DHT22;14871;52.702;5.230;2023-07-13T14:33:49;27.00;80.40
27413;DHT22;14871;52.702;5.230;2023-07-13T14:38:46;27.40;77.40
27413;DHT22;14871;52.702;5.230;2023-07-13T14:41:12;27.40;77.60
27413;DHT22;14871;52.702;5.230;2023-07-13T14:43:37;26.90;80.30
27413;DHT22;14871;52.702;5.230;2023-07-13T14:46:03;26.80;81.90
27413;DHT22;14871;52.702;5.230;2023-07-13T14:48:30;26.50;82.70
27413;DHT22;14871;52.702;5.230;2023-07-13T14:50:58;26.70;82.70
27413;DHT22;14871;52.702;5.230;2023-07-13T14:53:25;26.90;81.90
27413;DHT22;14871;52.702;5.230;2023-07-13T14:55:53;26.60;82.40
27413;DHT22;14871;52.702;5.230;2023-07-13T14:58:18;26.40;83.30
27413;DHT22;14871;52.702;5.230;2023-07-13T15:00:44;26.50;83.60
27413;DHT22;14871;52.702;5.230;2023-07-13T15:03:24;26.70;82.40
27413;DHT22;14871;52.702;5.230;2023-07-13T15:05:51;27.00;79.90
27413;DHT22;14871;52.702;5.230;2023-07-13T15:08:18;26.30;82.90
27413;DHT22;14871;52.702;5.230;2023-07-13T15:10:44;26.50;82.70
27413;DHT22;14871;52.702;5.230;2023-07-13T15:13:16;26.70;82.60
27413;DHT22;14871;52.702;5.230;2023-07-13T15:15:45;26.30;82.10
27413;DHT22;14871;52.702;5.230;2023-07-13T15:18:13;26.40;80.90
27413;DHT22;14871;52.702;5.230;2023-07-13T15:20:39;26.40;80.70
27413;DHT22;14871;52.702;5.230;2023-07-13T15:23:05;26.20;81.20
27413;DHT22;14871;52.702;5.230;2023-07-13T15:25:33;26.10;82.00
27413;DHT22;14871;52.702;5.230;2023-07-13T15:27:59;26.10;81.90
27413;DHT22;14871;52.702;5.230;2023-07-13T15:30:30;26.20;81.10
27413;DHT22;14871;52.702;5.230;2023-07-13T15:32:58;26.40;81.10
27413;DHT22;14871;52.702;5.230;2023-07-13T15:35:26;26.50;80.90
27413;DHT22;14871;52.702;5.230;2023-07-13T15:37:52;26.60;81.90
27413;DHT22;14871;52.702;5.230;2023-07-13T15:40:19;26.80;80.70
27413;DHT22;14871;52.702;5.230;2023-07-13T15:42:47;26.50;81.90
27413;DHT22;14871;52.702;5.230;2023-07-13T15:45:21;26.50;83.70
27413;DHT22;14871;52.702;5.230;2023-07-13T15:47:48;26.70;82.30
27413;DHT22;14871;52.702;5.230;2023-07-13T15:50:22;26.60;83.10
27413;DHT22;14871;52.702;5.230;2023-07-13T15:52:51;26.10;85.10
27413;DHT22;14871;52.702;5.230;2023-07-13T15:55:17;26.20;84.90
27413;DHT22;14871;52.702;5.230;2023-07-13T15:57:51;26.10;85.40
27413;DHT22;14871;52.702;5.230;2023-07-13T16:00:22;26.10;86.40
27413;DHT22;14871;52.702;5.230;2023-07-13T16:02:49;25.80;87.40
27413;DHT22;14871;52.702;5.230;2023-07-13T16:05:16;25.60;88.10
27413;DHT22;14871;52.702;5.230;2023-07-13T16:07:46;25.70;87.70
27413;DHT22;14871;52.702;5.230;2023-07-13T16:10:24;25.60;88.20
27413;DHT22;14871;52.702;5.230;2023-07-13T16:12:51;25.40;89.40
27413;DHT22;14871;52.702;5.230;2023-07-13T16:15:19;25.60;88.70
27413;DHT22;14871;52.702;5.230;2023-07-13T16:17:46;25.50;89.30